sensor_id;sensor_type;location;lat;lon;timestamp;P1;durP1;ratioP1;P2;durP2;ratioP2
14698;SDS011;7439;50.804;4.602;2023-08-06T00:00:11;69.93;;;67.00;;
14698;SDS011;7439;50.804;4.602;2023-08-06T00:02:39;71.93;;;69.03;;
14698;SDS011;7439;50.804;4.602;2023-08-06T00:05:06;72.03;;;69.03;;
14698;SDS011;7439;50.804;4.602;2023-08-06T00:07:35;70.07;;;67.07;;
14698;SDS011;7439;50.804;4.602;2023-08-06T00:10:03;76.23;;;72.97;;
14698;SDS011;7439;50.804;4.602;2023-08-06T00:12:32;73.60;;;70.47;;
14698;SDS011;7439;50.804;4.602;2023-08-06T00:15:00;72.33;;;69.30;;
14698;SDS011;7439;50.804;4.602;2023-08-06T00:17:28;75.20;;;72.00;;
14698;SDS011;7439;50.804;4.602;2023-08-06T00:19:55;75.00;;;71.70;;
14698;SDS011;7439;50.804;4.602;2023-08-06T00:22:23;68.97;;;65.97;;
14698;SDS011;7439;50.804;4.602;2023-08-06T00:24:51;74.93;;;71.70;;
14698;SDS011;7439;50.804;4.602;2023-08-06T00:27:22;77.67;;;74.20;;
14698;SDS011;7439;50.804;4.602;2023-08-06T00:29:51;78.17;;;74.87;;
14698;SDS011;7439;50.804;4.602;2023-08-06T00:32:19;76.03;;;72.73;;
14698;SDS011;7439;50.804;4.602;2023-08-06T00:34:46;80.10;;;76.80;;
14698;SDS011;7439;50.804;4.602;2023-08-06T00:37:15;84.33;;;80.60;;
14698;SDS011;7439;50.804;4.602;2023-08-06T00:39:43;90.53;;;86.83;;
14698;SDS011;7439;50.804;4.602;2023-08-06T00:42:11;90.27;;;86.57;;
14698;SDS011;7439;50.804;4.602;2023-08-06T00:44:39;94.70;;;90.57;;
14698;SDS011;7439;50.804;4.602;2023-08-06T00:47:08;104.73;;;100.50;;
14698;SDS011;7439;50.804;4.602;2023-08-06T00:49:36;126.90;;;121.30;;
14698;SDS011;7439;50.804;4.602;2023-08-06T00:52:04;144.43;;;138.37;;
14698;SDS011;7439;50.804;4.602;2023-08-06T00:54:33;140.00;;;134.20;;
14698;SDS011;7439;50.804;4.602;2023-08-06T00:57:01;147.23;;;141.43;;
14698;SDS011;7439;50.804;4.602;2023-08-06T00:59:29;143.33;;;137.87;;
14698;SDS011;7439;50.804;4.602;2023-08-06T01:01:58;145.67;;;140.00;;
14698;SDS011;7439;50.804;4.602;2023-08-06T01:04:28;151.70;;;145.90;;
14698;SDS011;7439;50.804;4.602;2023-08-06T01:07:00;148.43;;;142.83;;
14698;SDS011;7439;50.804;4.602;2023-08-06T01:09:31;154.50;;;148.47;;
14698;SDS011;7439;50.804;4.602;2023-08-06T01:12:05;154.60;;;148.37;;
14698;SDS011;7439;50.804;4.602;2023-08-06T01:14:37;162.27;;;155.90;;
14698;SDS011;7439;50.804;4.602;2023-08-06T01:17:09;164.40;;;158.17;;
14698;SDS011;7439;50.804;4.602;2023-08-06T01:19:38;173.80;;;167.17;;
14698;SDS011;7439;50.804;4.602;2023-08-06T01:22:07;175.30;;;168.53;;
14698;SDS011;7439;50.804;4.602;2023-08-06T01:24:34;174.87;;;168.07;;
14698;SDS011;7439;50.804;4.602;2023-08-06T01:27:03;194.37;;;186.97;;
14698;SDS011;7439;50.804;4.602;2023-08-06T01:29:31;205.73;;;198.20;;
14698;SDS011;7439;50.804;4.602;2023-08-06T01:32:01;200.37;;;192.60;;
14698;SDS011;7439;50.804;4.602;2023-08-06T01:34:31;196.73;;;189.43;;
14698;SDS011;7439;50.804;4.602;2023-08-06T01:37:00;191.47;;;184.10;;
14698;SDS011;7439;50.804;4.602;2023-08-06T01:39:29;199.73;;;192.03;;
14698;SDS011;7439;50.804;4.602;2023-08-06T01:41:58;199.77;;;191.93;;
14698;SDS011;7439;50.804;4.602;2023-08-06T01:44:25;202.33;;;194.67;;
14698;SDS011;7439;50.804;4.602;2023-08-06T01:46:53;206.20;;;197.93;;
14698;SDS011;7439;50.804;4.602;2023-08-06T01:49:20;202.87;;;194.87;;
14698;SDS011;7439;50.804;4.602;2023-08-06T01:51:48;200.03;;;192.23;;
14698;SDS011;7439;50.804;4.602;2023-08-06T01:54:15;191.03;;;183.13;;
14698;SDS011;7439;50.804;4.602;2023-08-06T01:56:44;186.50;;;178.97;;
14698;SDS011;7439;50.804;4.602;2023-08-06T01:59:12;184.70;;;177.03;;
14698;SDS011;7439;50.804;4.602;2023-08-06T02:01:40;195.33;;;187.60;;
14698;SDS011;7439;50.804;4.602;2023-08-06T02:04:07;197.37;;;189.57;;
14698;SDS011;7439;50.804;4.602;2023-08-06T02:06:35;188.40;;;180.47;;
14698;SDS011;7439;50.804;4.602;2023-08-06T02:09:03;195.87;;;188.23;;
14698;SDS011;7439;50.804;4.602;2023-08-06T02:11:30;204.03;;;195.37;;
14698;SDS011;7439;50.804;4.602;2023-08-06T02:13:59;207.50;;;199.40;;
14698;SDS011;7439;50.804;4.602;2023-08-06T02:16:27;202.33;;;194.10;;
14698;SDS011;7439;50.804;4.602;2023-08-06T02:18:54;211.60;;;203.50;;
14698;SDS011;7439;50.804;4.602;2023-08-06T02:21:22;217.77;;;209.53;;
14698;SDS011;7439;50.804;4.602;2023-08-06T02:23:49;224.03;;;215.17;;
14698;SDS011;7439;50.804;4.602;2023-08-06T02:26:17;222.00;;;213.60;;
14698;SDS011;7439;50.804;4.602;2023-08-06T02:28:44;220.07;;;209.77;;
14698;SDS011;7439;50.804;4.602;2023-08-06T02:31:13;222.73;;;214.40;;
14698;SDS011;7439;50.804;4.602;2023-08-06T02:33:41;225.47;;;217.10;;
14698;SDS011;7439;50.804;4.602;2023-08-06T02:36:08;220.37;;;212.03;;
14698;SDS011;7439;50.804;4.602;2023-08-06T02:38:36;224.03;;;215.77;;
14698;SDS011;7439;50.804;4.602;2023-08-06T02:41:04;209.07;;;201.30;;
14698;SDS011;7439;50.804;4.602;2023-08-06T02:43:32;213.23;;;205.17;;
14698;SDS011;7439;50.804;4.602;2023-08-06T02:45:59;206.30;;;198.57;;
14698;SDS011;7439;50.804;4.602;2023-08-06T02:48:29;213.83;;;205.70;;
14698;SDS011;7439;50.804;4.602;2023-08-06T02:50:59;206.63;;;199.03;;
14698;SDS011;7439;50.804;4.602;2023-08-06T02:53:26;210.23;;;202.47;;
14698;SDS011;7439;50.804;4.602;2023-08-06T02:55:54;226.80;;;218.57;;
14698;SDS011;7439;50.804;4.602;2023-08-06T02:58:22;233.13;;;224.53;;
14698;SDS011;7439;50.804;4.602;2023-08-06T03:00:58;242.63;;;233.73;;
14698;SDS011;7439;50.804;4.602;2023-08-06T03:03:29;241.07;;;232.43;;
14698;SDS011;7439;50.804;4.602;2023-08-06T03:05:56;249.60;;;240.63;;
14698;SDS011;7439;50.804;4.602;2023-08-06T03:08:24;241.03;;;231.53;;
14698;SDS011;7439;50.804;4.602;2023-08-06T03:10:51;259.27;;;249.90;;
14698;SDS011;7439;50.804;4.602;2023-08-06T03:13:19;254.53;;;245.60;;
14698;SDS011;7439;50.804;4.602;2023-08-06T03:15:53;256.80;;;247.73;;
14698;SDS011;7439;50.804;4.602;2023-08-06T03:18:20;251.30;;;242.17;;
14698;SDS011;7439;50.804;4.602;2023-08-06T03:20:49;266.07;;;256.43;;
14698;SDS011;7439;50.804;4.602;2023-08-06T03:23:17;260.97;;;251.63;;
14698;SDS011;7439;50.804;4.602;2023-08-06T03:25:45;252.73;;;243.30;;
14698;SDS011;7439;50.804;4.602;2023-08-06T03:28:12;255.67;;;246.67;;
14698;SDS011;7439;50.804;4.602;2023-08-06T03:30:40;246.37;;;237.80;;
14698;SDS011;7439;50.804;4.602;2023-08-06T03:33:08;250.37;;;240.63;;
14698;SDS011;7439;50.804;4.602;2023-08-06T03:35:35;256.73;;;247.80;;
14698;SDS011;7439;50.804;4.602;2023-08-06T03:38:04;266.87;;;257.40;;
14698;SDS011;7439;50.804;4.602;2023-08-06T03:40:31;266.50;;;257.10;;
14698;SDS011;7439;50.804;4.602;2023-08-06T03:42:59;263.63;;;254.23;;
14698;SDS011;7439;50.804;4.602;2023-08-06T03:45:26;258.63;;;249.40;;
14698;SDS011;7439;50.804;4.602;2023-08-06T03:47:54;263.90;;;254.07;;
14698;SDS011;7439;50.804;4.602;2023-08-06T03:50:21;255.93;;;246.53;;
14698;SDS011;7439;50.804;4.602;2023-08-06T03:52:49;257.00;;;247.33;;
14698;SDS011;7439;50.804;4.602;2023-08-06T03:55:17;257.83;;;248.13;;
14698;SDS011;7439;50.804;4.602;2023-08-06T03:57:45;263.17;;;253.17;;
14698;SDS011;7439;50.804;4.602;2023-08-06T04:00:13;269.93;;;259.37;;
14698;SDS011;7439;50.804;4.602;2023-08-06T04:02:40;258.20;;;247.57;;
14698;SDS011;7439;50.804;4.602;2023-08-06T04:05:08;256.73;;;245.70;;
14698;SDS011;7439;50.804;4.602;2023-08-06T04:07:36;236.00;;;225.50;;
14698;SDS011;7439;50.804;4.602;2023-08-06T04:10:04;248.73;;;237.87;;
14698;SDS011;7439;50.804;4.602;2023-08-06T04:12:33;242.60;;;231.63;;
14698;SDS011;7439;50.804;4.602;2023-08-06T04:15:01;227.40;;;217.17;;
14698;SDS011;7439;50.804;4.602;2023-08-06T04:17:29;243.97;;;232.47;;
14698;SDS011;7439;50.804;4.602;2023-08-06T04:19:56;233.27;;;223.23;;
14698;SDS011;7439;50.804;4.602;2023-08-06T04:22:24;236.87;;;226.03;;
14698;SDS011;7439;50.804;4.602;2023-08-06T04:24:52;240.73;;;230.17;;
14698;SDS011;7439;50.804;4.602;2023-08-06T04:27:20;238.90;;;228.57;;
14698;SDS011;7439;50.804;4.602;2023-08-06T04:29:49;248.73;;;238.57;;
14698;SDS011;7439;50.804;4.602;2023-08-06T04:32:16;252.67;;;242.80;;
14698;SDS011;7439;50.804;4.602;2023-08-06T04:34:45;239.47;;;230.90;;
14698;SDS011;7439;50.804;4.602;2023-08-06T04:37:13;236.83;;;228.63;;
14698;SDS011;7439;50.804;4.602;2023-08-06T04:39:39;217.53;;;209.97;;
14698;SDS011;7439;50.804;4.602;2023-08-06T04:42:07;238.80;;;230.77;;
14698;SDS011;7439;50.804;4.602;2023-08-06T04:44:35;237.33;;;229.37;;
14698;SDS011;7439;50.804;4.602;2023-08-06T04:47:04;230.60;;;222.60;;
14698;SDS011;7439;50.804;4.602;2023-08-06T04:49:31;216.80;;;209.10;;
14698;SDS011;7439;50.804;4.602;2023-08-06T04:51:59;234.17;;;225.80;;
14698;SDS011;7439;50.804;4.602;2023-08-06T04:54:26;219.20;;;211.50;;
14698;SDS011;7439;50.804;4.602;2023-08-06T04:56:53;200.87;;;193.67;;
14698;SDS011;7439;50.804;4.602;2023-08-06T04:59:21;219.60;;;211.80;;
14698;SDS011;7439;50.804;4.602;2023-08-06T05:01:49;220.57;;;212.80;;
14698;SDS011;7439;50.804;4.602;2023-08-06T05:04:17;214.53;;;206.93;;
14698;SDS011;7439;50.804;4.602;2023-08-06T05:06:44;222.30;;;214.37;;
14698;SDS011;7439;50.804;4.602;2023-08-06T05:09:12;243.57;;;234.77;;
14698;SDS011;7439;50.804;4.602;2023-08-06T05:11:39;253.63;;;244.23;;
14698;SDS011;7439;50.804;4.602;2023-08-06T05:14:07;250.43;;;241.87;;
14698;SDS011;7439;50.804;4.602;2023-08-06T05:16:36;221.40;;;213.53;;
14698;SDS011;7439;50.804;4.602;2023-08-06T05:19:04;193.33;;;185.67;;
14698;SDS011;7439;50.804;4.602;2023-08-06T05:21:33;221.03;;;213.23;;
14698;SDS011;7439;50.804;4.602;2023-08-06T05:24:00;213.60;;;205.73;;
14698;SDS011;7439;50.804;4.602;2023-08-06T05:26:27;198.70;;;191.33;;
14698;SDS011;7439;50.804;4.602;2023-08-06T05:28:55;182.17;;;175.27;;
14698;SDS011;7439;50.804;4.602;2023-08-06T05:31:22;184.50;;;177.23;;
14698;SDS011;7439;50.804;4.602;2023-08-06T05:33:49;163.50;;;157.20;;
14698;SDS011;7439;50.804;4.602;2023-08-06T05:36:17;156.73;;;150.13;;
14698;SDS011;7439;50.804;4.602;2023-08-06T05:38:45;170.20;;;163.60;;
14698;SDS011;7439;50.804;4.602;2023-08-06T05:41:13;154.40;;;148.33;;
14698;SDS011;7439;50.804;4.602;2023-08-06T05:43:40;159.83;;;153.77;;
14698;SDS011;7439;50.804;4.602;2023-08-06T05:46:08;149.43;;;143.50;;
14698;SDS011;7439;50.804;4.602;2023-08-06T05:48:35;175.37;;;168.87;;
14698;SDS011;7439;50.804;4.602;2023-08-06T05:51:03;176.23;;;169.43;;
14698;SDS011;7439;50.804;4.602;2023-08-06T05:53:30;159.83;;;153.33;;
14698;SDS011;7439;50.804;4.602;2023-08-06T05:55:59;169.37;;;162.67;;
14698;SDS011;7439;50.804;4.602;2023-08-06T05:58:26;148.47;;;142.77;;
14698;SDS011;7439;50.804;4.602;2023-08-06T06:00:55;152.17;;;146.13;;
14698;SDS011;7439;50.804;4.602;2023-08-06T06:03:23;161.17;;;154.53;;
14698;SDS011;7439;50.804;4.602;2023-08-06T06:05:50;163.97;;;157.77;;
14698;SDS011;7439;50.804;4.602;2023-08-06T06:08:17;154.43;;;148.20;;
14698;SDS011;7439;50.804;4.602;2023-08-06T06:10:45;153.97;;;147.87;;
14698;SDS011;7439;50.804;4.602;2023-08-06T06:13:13;154.13;;;147.87;;
14698;SDS011;7439;50.804;4.602;2023-08-06T06:15:41;148.10;;;142.17;;
14698;SDS011;7439;50.804;4.602;2023-08-06T06:18:08;159.73;;;153.17;;
14698;SDS011;7439;50.804;4.602;2023-08-06T06:20:35;166.37;;;159.00;;
14698;SDS011;7439;50.804;4.602;2023-08-06T06:23:02;159.27;;;152.87;;
14698;SDS011;7439;50.804;4.602;2023-08-06T06:25:30;161.73;;;154.80;;
14698;SDS011;7439;50.804;4.602;2023-08-06T06:27:57;167.63;;;160.47;;
14698;SDS011;7439;50.804;4.602;2023-08-06T06:30:26;165.03;;;157.50;;
14698;SDS011;7439;50.804;4.602;2023-08-06T06:32:53;163.27;;;156.90;;
14698;SDS011;7439;50.804;4.602;2023-08-06T06:35:21;162.73;;;155.63;;
14698;SDS011;7439;50.804;4.602;2023-08-06T06:37:48;168.20;;;160.80;;
14698;SDS011;7439;50.804;4.602;2023-08-06T06:40:18;170.17;;;163.27;;
14698;SDS011;7439;50.804;4.602;2023-08-06T06:42:46;176.40;;;169.27;;
14698;SDS011;7439;50.804;4.602;2023-08-06T06:45:13;180.77;;;173.73;;
14698;SDS011;7439;50.804;4.602;2023-08-06T06:47:42;200.53;;;192.50;;
14698;SDS011;7439;50.804;4.602;2023-08-06T06:50:09;227.03;;;218.50;;
14698;SDS011;7439;50.804;4.602;2023-08-06T06:52:37;221.00;;;212.90;;
14698;SDS011;7439;50.804;4.602;2023-08-06T06:55:04;225.10;;;216.40;;
14698;SDS011;7439;50.804;4.602;2023-08-06T06:57:32;242.17;;;233.47;;
14698;SDS011;7439;50.804;4.602;2023-08-06T06:59:59;244.17;;;234.97;;
14698;SDS011;7439;50.804;4.602;2023-08-06T07:02:27;278.93;;;268.80;;
14698;SDS011;7439;50.804;4.602;2023-08-06T07:04:55;301.87;;;291.17;;
14698;SDS011;7439;50.804;4.602;2023-08-06T07:07:22;319.90;;;308.60;;
14698;SDS011;7439;50.804;4.602;2023-08-06T07:09:50;321.70;;;309.80;;
14698;SDS011;7439;50.804;4.602;2023-08-06T07:12:17;331.80;;;319.60;;
14698;SDS011;7439;50.804;4.602;2023-08-06T07:14:46;319.20;;;307.63;;
14698;SDS011;7439;50.804;4.602;2023-08-06T07:17:14;388.57;;;374.70;;
14698;SDS011;7439;50.804;4.602;2023-08-06T07:19:41;431.60;;;416.03;;
14698;SDS011;7439;50.804;4.602;2023-08-06T07:22:10;395.27;;;381.33;;
14698;SDS011;7439;50.804;4.602;2023-08-06T07:24:37;381.07;;;367.90;;
14698;SDS011;7439;50.804;4.602;2023-08-06T07:27:05;363.83;;;350.90;;
14698;SDS011;7439;50.804;4.602;2023-08-06T07:29:36;372.37;;;359.30;;
14698;SDS011;7439;50.804;4.602;2023-08-06T07:32:10;346.43;;;333.43;;
14698;SDS011;7439;50.804;4.602;2023-08-06T07:34:38;351.07;;;338.97;;
14698;SDS011;7439;50.804;4.602;2023-08-06T07:37:06;319.77;;;308.17;;
14698;SDS011;7439;50.804;4.602;2023-08-06T07:39:34;305.57;;;294.37;;
14698;SDS011;7439;50.804;4.602;2023-08-06T07:42:03;318.47;;;307.43;;
14698;SDS011;7439;50.804;4.602;2023-08-06T07:44:32;326.30;;;314.67;;
14698;SDS011;7439;50.804;4.602;2023-08-06T07:46:59;317.03;;;305.70;;
14698;SDS011;7439;50.804;4.602;2023-08-06T07:49:27;328.73;;;317.17;;
14698;SDS011;7439;50.804;4.602;2023-08-06T07:51:54;309.93;;;298.83;;
14698;SDS011;7439;50.804;4.602;2023-08-06T07:54:22;315.70;;;304.20;;
14698;SDS011;7439;50.804;4.602;2023-08-06T07:56:51;330.17;;;318.30;;
14698;SDS011;7439;50.804;4.602;2023-08-06T07:59:18;323.87;;;312.27;;
14698;SDS011;7439;50.804;4.602;2023-08-06T08:01:46;319.37;;;308.40;;
14698;SDS011;7439;50.804;4.602;2023-08-06T08:04:13;328.03;;;316.27;;
14698;SDS011;7439;50.804;4.602;2023-08-06T08:06:41;368.50;;;355.30;;
14698;SDS011;7439;50.804;4.602;2023-08-06T08:09:09;380.90;;;367.40;;
14698;SDS011;7439;50.804;4.602;2023-08-06T08:11:36;424.23;;;409.47;;
14698;SDS011;7439;50.804;4.602;2023-08-06T08:14:05;502.13;;;484.27;;
14698;SDS011;7439;50.804;4.602;2023-08-06T08:16:32;462.83;;;446.20;;
14698;SDS011;7439;50.804;4.602;2023-08-06T08:19:00;520.90;;;502.03;;
14698;SDS011;7439;50.804;4.602;2023-08-06T08:21:29;542.00;;;521.70;;
14698;SDS011;7439;50.804;4.602;2023-08-06T08:23:58;512.13;;;493.70;;
14698;SDS011;7439;50.804;4.602;2023-08-06T08:26:25;510.93;;;492.27;;
14698;SDS011;7439;50.804;4.602;2023-08-06T08:28:53;518.70;;;499.07;;
14698;SDS011;7439;50.804;4.602;2023-08-06T08:31:22;557.37;;;536.57;;
14698;SDS011;7439;50.804;4.602;2023-08-06T08:33:50;637.73;;;612.70;;
14698;SDS011;7439;50.804;4.602;2023-08-06T08:36:19;575.17;;;553.40;;
14698;SDS011;7439;50.804;4.602;2023-08-06T08:38:46;585.17;;;562.63;;
14698;SDS011;7439;50.804;4.602;2023-08-06T08:41:15;624.40;;;599.27;;
14698;SDS011;7439;50.804;4.602;2023-08-06T08:43:42;585.57;;;563.03;;
14698;SDS011;7439;50.804;4.602;2023-08-06T08:46:13;576.03;;;554.13;;
14698;SDS011;7439;50.804;4.602;2023-08-06T08:48:42;494.80;;;476.77;;
14698;SDS011;7439;50.804;4.602;2023-08-06T08:51:10;449.17;;;433.10;;
14698;SDS011;7439;50.804;4.602;2023-08-06T08:53:38;410.60;;;395.77;;
14698;SDS011;7439;50.804;4.602;2023-08-06T08:56:07;403.30;;;389.13;;
14698;SDS011;7439;50.804;4.602;2023-08-06T08:58:35;379.93;;;364.87;;
14698;SDS011;7439;50.804;4.602;2023-08-06T09:01:02;367.87;;;354.83;;
14698;SDS011;7439;50.804;4.602;2023-08-06T09:03:30;364.77;;;352.00;;
14698;SDS011;7439;50.804;4.602;2023-08-06T09:06:00;380.10;;;366.70;;
14698;SDS011;7439;50.804;4.602;2023-08-06T09:08:31;410.97;;;396.50;;
14698;SDS011;7439;50.804;4.602;2023-08-06T09:11:00;405.03;;;390.50;;
14698;SDS011;7439;50.804;4.602;2023-08-06T09:13:28;499.37;;;481.37;;
14698;SDS011;7439;50.804;4.602;2023-08-06T09:15:56;516.23;;;496.93;;
14698;SDS011;7439;50.804;4.602;2023-08-06T09:18:26;541.97;;;521.33;;
14698;SDS011;7439;50.804;4.602;2023-08-06T09:20:54;519.93;;;500.23;;
14698;SDS011;7439;50.804;4.602;2023-08-06T09:23:24;492.77;;;473.93;;
14698;SDS011;7439;50.804;4.602;2023-08-06T09:25:54;534.90;;;514.80;;
14698;SDS011;7439;50.804;4.602;2023-08-06T09:28:22;561.33;;;539.80;;
14698;SDS011;7439;50.804;4.602;2023-08-06T09:30:50;577.57;;;554.57;;
14698;SDS011;7439;50.804;4.602;2023-08-06T09:33:17;551.67;;;529.60;;
14698;SDS011;7439;50.804;4.602;2023-08-06T09:35:45;542.13;;;520.97;;
14698;SDS011;7439;50.804;4.602;2023-08-06T09:38:13;563.57;;;541.53;;
14698;SDS011;7439;50.804;4.602;2023-08-06T09:40:42;541.97;;;520.87;;
14698;SDS011;7439;50.804;4.602;2023-08-06T09:43:09;459.40;;;442.30;;
14698;SDS011;7439;50.804;4.602;2023-08-06T09:45:39;406.50;;;391.87;;
14698;SDS011;7439;50.804;4.602;2023-08-06T09:48:08;408.07;;;393.33;;
14698;SDS011;7439;50.804;4.602;2023-08-06T09:50:37;431.83;;;416.37;;
14698;SDS011;7439;50.804;4.602;2023-08-06T09:53:07;409.63;;;395.00;;
14698;SDS011;7439;50.804;4.602;2023-08-06T09:55:34;356.17;;;343.47;;
14698;SDS011;7439;50.804;4.602;2023-08-06T09:58:03;330.33;;;318.57;;
14698;SDS011;7439;50.804;4.602;2023-08-06T10:00:31;367.20;;;353.63;;
14698;SDS011;7439;50.804;4.602;2023-08-06T10:03:00;333.83;;;321.87;;
14698;SDS011;7439;50.804;4.602;2023-08-06T10:05:28;341.43;;;329.60;;
14698;SDS011;7439;50.804;4.602;2023-08-06T10:07:56;307.93;;;297.30;;
14698;SDS011;7439;50.804;4.602;2023-08-06T10:10:24;305.33;;;294.57;;
14698;SDS011;7439;50.804;4.602;2023-08-06T10:12:52;292.70;;;282.40;;
14698;SDS011;7439;50.804;4.602;2023-08-06T10:15:23;268.73;;;259.03;;
14698;SDS011;7439;50.804;4.602;2023-08-06T10:17:52;297.27;;;286.80;;
14698;SDS011;7439;50.804;4.602;2023-08-06T10:20:22;306.20;;;295.10;;
14698;SDS011;7439;50.804;4.602;2023-08-06T10:22:59;299.53;;;288.20;;
14698;SDS011;7439;50.804;4.602;2023-08-06T10:25:28;311.27;;;300.13;;
14698;SDS011;7439;50.804;4.602;2023-08-06T10:27:57;316.10;;;304.40;;
14698;SDS011;7439;50.804;4.602;2023-08-06T10:30:26;311.43;;;300.00;;
14698;SDS011;7439;50.804;4.602;2023-08-06T10:32:55;311.23;;;300.23;;
14698;SDS011;7439;50.804;4.602;2023-08-06T10:35:34;327.53;;;315.60;;
14698;SDS011;7439;50.804;4.602;2023-08-06T10:38:05;327.47;;;316.03;;
14698;SDS011;7439;50.804;4.602;2023-08-06T10:40:34;361.67;;;348.90;;
14698;SDS011;7439;50.804;4.602;2023-08-06T10:43:02;337.57;;;325.90;;
14698;SDS011;7439;50.804;4.602;2023-08-06T10:45:35;323.50;;;312.20;;
14698;SDS011;7439;50.804;4.602;2023-08-06T10:48:03;281.63;;;271.77;;
14698;SDS011;7439;50.804;4.602;2023-08-06T10:50:30;300.47;;;289.67;;
14698;SDS011;7439;50.804;4.602;2023-08-06T10:53:03;334.00;;;322.07;;
14698;SDS011;7439;50.804;4.602;2023-08-06T10:55:32;366.73;;;354.03;;
14698;SDS011;7439;50.804;4.602;2023-08-06T10:57:59;348.13;;;336.13;;
14698;SDS011;7439;50.804;4.602;2023-08-06T11:00:27;319.03;;;307.80;;
14698;SDS011;7439;50.804;4.602;2023-08-06T11:02:56;368.10;;;355.20;;
14698;SDS011;7439;50.804;4.602;2023-08-06T11:05:23;391.40;;;377.90;;
14698;SDS011;7439;50.804;4.602;2023-08-06T11:07:51;409.57;;;395.47;;
14698;SDS011;7439;50.804;4.602;2023-08-06T11:10:18;400.70;;;386.73;;
14698;SDS011;7439;50.804;4.602;2023-08-06T11:12:45;430.33;;;414.87;;
14698;SDS011;7439;50.804;4.602;2023-08-06T11:15:13;390.80;;;376.87;;
14698;SDS011;7439;50.804;4.602;2023-08-06T11:17:40;461.87;;;445.40;;
14698;SDS011;7439;50.804;4.602;2023-08-06T11:20:09;474.70;;;456.50;;
14698;SDS011;7439;50.804;4.602;2023-08-06T11:22:37;500.73;;;482.67;;
14698;SDS011;7439;50.804;4.602;2023-08-06T11:25:06;483.27;;;465.70;;
14698;SDS011;7439;50.804;4.602;2023-08-06T11:27:33;440.40;;;424.53;;
14698;SDS011;7439;50.804;4.602;2023-08-06T11:30:03;472.60;;;455.67;;
14698;SDS011;7439;50.804;4.602;2023-08-06T11:32:31;475.23;;;458.00;;
14698;SDS011;7439;50.804;4.602;2023-08-06T11:35:08;503.40;;;485.07;;
14698;SDS011;7439;50.804;4.602;2023-08-06T11:37:37;531.83;;;512.17;;
14698;SDS011;7439;50.804;4.602;2023-08-06T11:40:06;579.03;;;556.90;;
14698;SDS011;7439;50.804;4.602;2023-08-06T11:42:36;559.90;;;538.93;;
14698;SDS011;7439;50.804;4.602;2023-08-06T11:45:03;545.50;;;525.03;;
14698;SDS011;7439;50.804;4.602;2023-08-06T11:47:31;529.23;;;509.77;;
14698;SDS011;7439;50.804;4.602;2023-08-06T11:49:58;509.80;;;491.43;;
14698;SDS011;7439;50.804;4.602;2023-08-06T11:52:26;490.40;;;472.90;;
14698;SDS011;7439;50.804;4.602;2023-08-06T11:55:01;529.37;;;510.07;;
14698;SDS011;7439;50.804;4.602;2023-08-06T11:57:31;518.63;;;499.80;;
14698;SDS011;7439;50.804;4.602;2023-08-06T12:00:03;469.10;;;452.37;;
14698;SDS011;7439;50.804;4.602;2023-08-06T12:02:32;458.90;;;442.50;;
14698;SDS011;7439;50.804;4.602;2023-08-06T12:05:02;464.83;;;448.03;;
14698;SDS011;7439;50.804;4.602;2023-08-06T12:07:31;471.27;;;454.60;;
14698;SDS011;7439;50.804;4.602;2023-08-06T12:09:59;485.70;;;468.57;;
14698;SDS011;7439;50.804;4.602;2023-08-06T12:12:28;427.43;;;412.63;;
14698;SDS011;7439;50.804;4.602;2023-08-06T12:14:55;404.70;;;390.40;;
14698;SDS011;7439;50.804;4.602;2023-08-06T12:17:23;426.97;;;412.10;;
14698;SDS011;7439;50.804;4.602;2023-08-06T12:19:51;498.07;;;480.00;;
14698;SDS011;7439;50.804;4.602;2023-08-06T12:22:18;515.53;;;497.17;;
14698;SDS011;7439;50.804;4.602;2023-08-06T12:24:46;444.87;;;429.30;;
14698;SDS011;7439;50.804;4.602;2023-08-06T12:27:14;585.27;;;563.47;;
14698;SDS011;7439;50.804;4.602;2023-08-06T12:29:43;624.10;;;599.43;;
14698;SDS011;7439;50.804;4.602;2023-08-06T12:32:11;676.37;;;648.90;;
14698;SDS011;7439;50.804;4.602;2023-08-06T12:34:38;604.50;;;580.97;;
14698;SDS011;7439;50.804;4.602;2023-08-06T12:37:05;665.90;;;638.93;;
14698;SDS011;7439;50.804;4.602;2023-08-06T12:39:33;660.17;;;633.00;;
14698;SDS011;7439;50.804;4.602;2023-08-06T12:42:01;649.87;;;623.77;;
14698;SDS011;7439;50.804;4.602;2023-08-06T12:44:29;684.97;;;655.57;;
14698;SDS011;7439;50.804;4.602;2023-08-06T12:46:58;696.37;;;666.03;;
14698;SDS011;7439;50.804;4.602;2023-08-06T12:49:25;638.37;;;611.87;;
14698;SDS011;7439;50.804;4.602;2023-08-06T12:51:54;629.30;;;603.60;;
14698;SDS011;7439;50.804;4.602;2023-08-06T12:54:24;617.20;;;591.83;;
14698;SDS011;7439;50.804;4.602;2023-08-06T12:56:52;620.87;;;595.03;;
14698;SDS011;7439;50.804;4.602;2023-08-06T12:59:19;593.03;;;568.87;;
14698;SDS011;7439;50.804;4.602;2023-08-06T13:01:47;548.93;;;527.10;;
14698;SDS011;7439;50.804;4.602;2023-08-06T13:04:16;547.30;;;525.83;;
14698;SDS011;7439;50.804;4.602;2023-08-06T13:06:43;571.77;;;549.13;;
14698;SDS011;7439;50.804;4.602;2023-08-06T13:09:10;574.47;;;551.43;;
14698;SDS011;7439;50.804;4.602;2023-08-06T13:11:38;536.10;;;515.37;;
14698;SDS011;7439;50.804;4.602;2023-08-06T13:14:06;548.60;;;527.53;;
14698;SDS011;7439;50.804;4.602;2023-08-06T13:16:34;507.47;;;488.70;;
14698;SDS011;7439;50.804;4.602;2023-08-06T13:19:02;500.27;;;482.00;;
14698;SDS011;7439;50.804;4.602;2023-08-06T13:21:33;470.37;;;453.53;;
14698;SDS011;7439;50.804;4.602;2023-08-06T13:24:00;478.07;;;461.07;;
14698;SDS011;7439;50.804;4.602;2023-08-06T13:26:28;475.17;;;457.97;;
14698;SDS011;7439;50.804;4.602;2023-08-06T13:28:56;461.80;;;445.37;;
14698;SDS011;7439;50.804;4.602;2023-08-06T13:31:24;474.80;;;457.87;;
14698;SDS011;7439;50.804;4.602;2023-08-06T13:33:52;451.63;;;435.50;;
14698;SDS011;7439;50.804;4.602;2023-08-06T13:36:20;500.43;;;482.13;;
14698;SDS011;7439;50.804;4.602;2023-08-06T13:38:49;451.30;;;434.97;;
14698;SDS011;7439;50.804;4.602;2023-08-06T13:41:16;410.87;;;396.70;;
14698;SDS011;7439;50.804;4.602;2023-08-06T13:43:44;417.53;;;402.43;;
14698;SDS011;7439;50.804;4.602;2023-08-06T13:46:11;394.00;;;379.57;;
14698;SDS011;7439;50.804;4.602;2023-08-06T13:48:41;441.83;;;426.33;;
14698;SDS011;7439;50.804;4.602;2023-08-06T13:51:09;418.83;;;404.23;;
14698;SDS011;7439;50.804;4.602;2023-08-06T13:53:36;439.87;;;424.57;;
14698;SDS011;7439;50.804;4.602;2023-08-06T13:56:05;467.90;;;451.20;;
14698;SDS011;7439;50.804;4.602;2023-08-06T13:58:34;470.37;;;453.53;;
14698;SDS011;7439;50.804;4.602;2023-08-06T14:01:02;498.47;;;480.23;;
14698;SDS011;7439;50.804;4.602;2023-08-06T14:03:29;477.77;;;460.63;;
14698;SDS011;7439;50.804;4.602;2023-08-06T14:05:56;496.00;;;478.33;;
14698;SDS011;7439;50.804;4.602;2023-08-06T14:08:24;479.43;;;462.00;;
14698;SDS011;7439;50.804;4.602;2023-08-06T14:10:51;493.50;;;475.57;;
14698;SDS011;7439;50.804;4.602;2023-08-06T14:13:20;466.23;;;449.47;;
14698;SDS011;7439;50.804;4.602;2023-08-06T14:15:48;481.57;;;464.00;;